Terminal Aerodrome Forecast
Issued by NWS Cleveland, OH

Home | Current Version | Previous Version | Graphics & Text | Print | Product List | Glossary On
Versions: 1 2 3 4 5 6 7 8 9 10 11 12 13 14 15 16 17 18 19 20
000
FTUS41 KCLE 261740
TAFYNG
TAF
KYNG 261740Z 2618/2718 34014G22KT 6SM BR OVC012
     FM261900 35012G18KT 5SM BR OVC008
      TEMPO 2619/2623 2SM BR OVC004
     FM271000 04010KT P6SM OVC010
     FM271500 06010KT P6SM SCT012 BKN035=

USA.gov is the U.S. government's official web portal to all federal, state and local government web resources and services.